Time;durP1;ratioP1;P1;durP2;ratioP2;P2;SDS_P1;SDS_P2;PMS_P1;PMS_P2;Temp;Humidity;BMP_temperature;BMP_pressure;BME280_temperature;BME280_humidity;BME280_pressure;Samples;Min_cycle;Max_cycle;Signal;HPM_P1;HPM_P2
2022/06/08 00:00:58;;;;;;;;;1.00;1.00;;;;;21.10;52.20;100706.94;4994696;28;45380;-75
2022/06/08 00:03:37;;;;;;;;;3.00;3.00;;;;;21.04;52.50;100693.84;4998402;28;45327;-74
2022/06/08 00:06:02;;;;;;;;;1.25;1.00;;;;;21.07;52.31;100708.03;4977516;28;45267;-75
2022/06/08 00:08:27;;;;;;;;;2.25;1.00;;;;;21.07;52.76;100696.31;4995179;28;45693;-75
2022/06/08 00:10:53;;;;;;;;;2.00;2.00;;;;;21.03;52.10;100687.56;4997540;28;45318;-75
2022/06/08 00:13:18;;;;;;;;;2.50;2.00;;;;;21.04;51.94;100683.84;4998477;28;45581;-75
2022/06/08 00:15:44;;;;;;;;;3.00;1.75;;;;;21.05;52.54;100682.00;4998643;28;45343;-74
2022/06/08 00:18:10;;;;;;;;;2.00;1.00;;;;;21.02;52.25;100676.81;4998370;28;45462;-75
2022/06/08 00:20:37;;;;;;;;;3.00;2.00;;;;;21.03;52.57;100673.09;4998261;28;45265;-75
2022/06/08 00:23:03;;;;;;;;;2.00;2.00;;;;;21.01;52.68;100670.50;4998186;28;45358;-75
2022/06/08 00:25:29;;;;;;;;;2.75;1.50;;;;;20.96;52.60;100658.28;4998662;28;45240;-74
2022/06/08 00:27:55;;;;;;;;;3.50;1.75;;;;;20.95;52.31;100660.16;4998240;28;46382;-75
2022/06/08 00:30:21;;;;;;;;;1.75;1.75;;;;;20.95;52.21;100662.88;4982692;28;45306;-75
2022/06/08 00:32:46;;;;;;;;;3.00;1.25;;;;;20.97;52.47;100662.75;4981242;28;45389;-75
2022/06/08 00:35:12;;;;;;;;;1.50;1.25;;;;;20.98;52.46;100667.16;4998238;28;45539;-74
2022/06/08 00:37:38;;;;;;;;;1.25;1.00;;;;;20.95;52.61;100659.25;4998007;28;46926;-75
2022/06/08 00:40:05;;;;;;;;;2.00;2.00;;;;;20.96;52.76;100661.00;4998477;28;45204;-75
2022/06/08 00:42:30;;;;;;;;;1.50;0.25;;;;;20.91;52.82;100654.09;4998632;28;45224;-75
2022/06/08 00:45:07;;;;;;;;;3.75;1.00;;;;;20.88;52.67;100648.91;4998298;28;45159;-74
2022/06/08 00:47:41;;;;;;;;;1.50;1.50;;;;;20.88;52.94;100634.44;4997971;28;45457;-75
2022/06/08 00:50:18;;;;;;;;;1.00;1.00;;;;;20.86;53.33;100637.28;4998234;28;45280;-75
2022/06/08 00:52:45;;;;;;;;;2.50;2.00;;;;;20.83;53.36;100639.38;4998297;28;45319;-75
2022/06/08 00:55:14;;;;;;;;;3.75;2.00;;;;;20.78;53.45;100634.31;4998060;28;45427;-75
2022/06/08 00:57:48;;;;;;;;;2.00;2.00;;;;;20.82;53.58;100646.66;4997196;28;45351;-74
2022/06/08 01:00:18;;;;;;;;;5.75;1.75;;;;;20.79;53.87;100638.75;4994899;28;45315;-75
2022/06/08 01:02:43;;;;;;;;;1.50;1.50;;;;;20.79;53.94;100629.75;4987626;28;45398;-75
2022/06/08 01:05:28;;;;;;;;;3.00;3.00;;;;;20.78;54.55;100628.00;4977494;28;45461;-75
2022/06/08 01:07:58;;;;;;;;;2.50;1.50;;;;;20.79;53.86;100635.19;4990264;28;45338;-75
2022/06/08 01:10:28;;;;;;;;;1.00;1.00;;;;;20.78;53.95;100639.75;4997806;28;45168;-74
2022/06/08 01:12:54;;;;;;;;;3.25;3.00;;;;;20.78;54.77;100634.31;4998014;28;45439;-75
2022/06/08 01:15:27;;;;;;;;;1.50;1.50;;;;;20.77;54.41;100632.59;4998101;28;45280;-75
2022/06/08 01:17:52;;;;;;;;;2.00;2.00;;;;;20.76;55.01;100625.41;4997628;28;46366;-75
2022/06/08 01:20:18;;;;;;;;;4.00;1.25;;;;;20.72;54.82;100629.38;4972392;28;45999;-75
2022/06/08 01:22:43;;;;;;;;;2.00;1.75;;;;;20.68;55.01;100628.75;4996655;28;45399;-75
2022/06/08 01:25:10;;;;;;;;;3.00;1.00;;;;;20.70;55.12;100636.75;4995757;28;45362;-75
2022/06/08 01:27:54;;;;;;;;;3.50;2.00;;;;;20.69;55.06;100630.44;4997741;28;45479;-74
2022/06/08 01:30:22;;;;;;;;;1.75;1.75;;;;;20.69;55.23;100624.16;4997611;28;45366;-74
2022/06/08 01:32:56;;;;;;;;;1.50;1.50;;;;;20.64;55.48;100608.25;4997673;28;45241;-75
2022/06/08 01:35:53;;;;;;;;;1.00;1.00;;;;;20.64;55.57;100618.25;4997542;28;45181;-75
2022/06/08 01:38:33;;;;;;;;;4.50;1.50;;;;;20.62;55.55;100626.47;4987659;28;45458;-75
2022/06/08 01:41:14;;;;;;;;;2.50;2.00;;;;;20.61;55.43;100621.16;4997444;28;45396;-78
2022/06/08 01:44:06;;;;;;;;;2.75;1.25;;;;;20.58;55.51;100608.72;4997815;28;45291;-76
2022/06/08 01:46:41;;;;;;;;;3.00;1.75;;;;;20.54;55.69;100610.75;4979699;28;45298;-77
2022/06/08 01:49:22;;;;;;;;;2.00;2.00;;;;;20.53;55.62;100624.44;4997395;28;45517;-76
2022/06/08 01:52:15;;;;;;;;;1.25;1.00;;;;;20.59;55.67;100633.97;4995532;28;45316;-76
2022/06/08 01:55:05;;;;;;;;;1.75;1.75;;;;;20.59;55.83;100645.66;4997461;28;45229;-76
2022/06/08 01:57:55;;;;;;;;;2.25;2.00;;;;;20.59;55.43;100636.69;4979754;28;45445;-76
2022/06/08 02:00:29;;;;;;;;;1.75;1.50;;;;;20.58;55.50;100624.97;4993900;28;46384;-77
2022/06/08 02:03:05;;;;;;;;;2.00;1.00;;;;;20.53;55.61;100622.59;4988197;28;45756;-76
2022/06/08 02:05:56;;;;;;;;;2.50;1.75;;;;;20.52;55.65;100617.31;4976232;28;45479;-76
2022/06/08 02:08:47;;;;;;;;;6.00;2.25;;;;;20.47;55.91;100623.06;4975674;28;45221;-76
2022/06/08 02:11:19;;;;;;;;;3.00;2.00;;;;;20.43;56.13;100604.44;4997021;28;46456;-76
2022/06/08 02:13:50;;;;;;;;;2.25;2.00;;;;;20.44;56.02;100606.16;4984631;28;45216;-76
2022/06/08 02:16:25;;;;;;;;;3.50;2.25;;;;;20.41;55.69;100599.13;4997131;28;45365;-76
2022/06/08 02:18:58;;;;;;;;;1.50;1.50;;;;;20.42;56.05;100598.16;4996168;28;45385;-77
2022/06/08 02:21:34;;;;;;;;;3.50;2.00;;;;;20.41;56.13;100596.41;4996430;28;45955;-76
2022/06/08 02:24:05;;;;;;;;;1.25;1.25;;;;;20.36;56.29;100602.22;4979016;28;45966;-77
2022/06/08 02:26:38;;;;;;;;;3.25;1.25;;;;;20.35;55.96;100608.59;4979422;28;45529;-76
2022/06/08 02:29:12;;;;;;;;;4.25;2.00;;;;;20.36;56.44;100615.75;4997080;28;45311;-78
2022/06/08 02:31:44;;;;;;;;;3.50;3.25;;;;;20.35;56.76;100610.44;4986275;28;45355;-78
2022/06/08 02:34:34;;;;;;;;;2.25;2.25;;;;;20.34;56.56;100622.25;4999820;28;45732;-78
2022/06/08 02:37:00;;;;;;;;;4.25;2.25;;;;;20.32;57.07;100616.94;4982184;28;45319;-78
2022/06/08 02:39:46;;;;;;;;;6.00;2.00;;;;;20.25;57.43;100602.16;4999781;28;45749;-76
2022/06/08 02:42:20;;;;;;;;;3.00;2.50;;;;;20.25;57.09;100609.41;4999492;28;45497;-77
2022/06/08 02:44:50;;;;;;;;;3.00;2.25;;;;;20.22;57.43;100605.09;4999936;28;45431;-77
2022/06/08 02:47:31;;;;;;;;;3.50;2.00;;;;;20.23;57.56;100606.81;4998599;28;45307;-77
2022/06/08 02:50:02;;;;;;;;;1.75;1.50;;;;;20.18;57.67;100595.47;4999878;28;45396;-78
2022/06/08 02:52:29;;;;;;;;;2.75;1.00;;;;;20.17;58.23;100593.72;4986086;28;46487;-77
2022/06/08 02:54:55;;;;;;;;;3.00;2.25;;;;;20.16;58.11;100581.13;4999599;28;45706;-77
2022/06/08 02:57:23;;;;;;;;;2.25;2.00;;;;;20.14;58.42;100578.53;4998854;28;45317;-77
2022/06/08 03:00:15;;;;;;;;;2.00;1.00;;;;;20.09;58.81;100577.19;4999542;28;45378;-80
2022/06/08 03:02:50;;;;;;;;;2.50;1.00;;;;;20.06;58.47;100580.09;4996809;28;46324;-77
2022/06/08 03:05:33;;;;;;;;;3.00;2.00;;;;;20.03;58.52;100577.63;4996046;28;45337;-77
2022/06/08 03:08:04;;;;;;;;;4.75;2.25;;;;;20.01;59.12;100580.44;4992547;28;45166;-76
2022/06/08 03:10:38;;;;;;;;;2.00;2.00;;;;;19.99;58.92;100572.44;4997276;28;45368;-77
2022/06/08 03:13:14;;;;;;;;;1.00;1.00;;;;;19.97;59.41;100563.56;4999177;28;46365;-77
2022/06/08 03:15:42;;;;;;;;;1.00;1.00;;;;;19.93;59.78;100553.94;4999416;28;45385;-76
2022/06/08 03:18:08;;;;;;;;;2.00;1.75;;;;;19.85;59.44;100542.81;4999310;28;45283;-76
2022/06/08 03:20:34;;;;;;;;;1.75;1.75;;;;;19.86;60.04;100544.53;4999038;28;45328;-76
2022/06/08 03:22:59;;;;;;;;;2.25;1.00;;;;;19.83;60.12;100523.13;4998990;28;45269;-76
2022/06/08 03:25:25;;;;;;;;;3.00;1.75;;;;;19.79;59.99;100518.88;4998121;28;45333;-75
2022/06/08 03:27:51;;;;;;;;;2.00;2.00;;;;;19.69;60.27;100507.00;4999184;28;45399;-76
2022/06/08 03:30:17;;;;;;;;;1.75;1.75;;;;;19.73;60.25;100514.78;4999257;28;45421;-76
2022/06/08 03:32:43;;;;;;;;;2.00;2.00;;;;;19.72;60.48;100513.03;4981429;28;48525;-75
2022/06/08 03:35:10;;;;;;;;;3.00;1.00;;;;;19.71;60.23;100515.84;4981306;28;45455;-76
2022/06/08 03:37:35;;;;;;;;;1.00;1.00;;;;;19.70;60.20;100511.44;4981220;28;45372;-76
2022/06/08 03:40:01;;;;;;;;;1.50;1.50;;;;;19.67;60.71;100498.97;4999213;28;45326;-76
2022/06/08 03:42:26;;;;;;;;;1.00;1.00;;;;;19.63;60.79;100503.75;4998399;28;45340;-76
2022/06/08 03:44:52;;;;;;;;;2.00;2.00;;;;;19.66;61.09;100510.78;4999109;28;45264;-77
2022/06/08 03:47:26;;;;;;;;;1.75;1.75;;;;;19.66;60.99;100507.22;4981109;28;45395;-76
2022/06/08 03:49:57;;;;;;;;;2.00;2.00;;;;;19.65;61.31;100506.34;4998916;28;45260;-76
2022/06/08 03:52:28;;;;;;;;;3.50;2.75;;;;;19.62;61.43;100501.16;4997546;28;45359;-76
2022/06/08 03:55:00;;;;;;;;;1.25;1.25;;;;;19.61;61.77;100503.00;4981113;28;45412;-76
2022/06/08 03:57:28;;;;;;;;;3.00;2.00;;;;;19.60;61.39;100506.69;4986565;28;45252;-75
2022/06/08 03:59:55;;;;;;;;;2.25;2.25;;;;;19.57;61.55;100501.50;4998819;28;45434;-75
2022/06/08 04:02:22;;;;;;;;;5.25;2.50;;;;;19.58;61.82;100505.94;4985448;28;45334;-76
2022/06/08 04:04:47;;;;;;;;;7.25;2.75;;;;;19.57;61.70;100503.34;4998106;28;45454;-75
2022/06/08 04:07:13;;;;;;;;;3.50;2.00;;;;;19.45;61.95;100497.00;4986050;28;45295;-76
2022/06/08 04:09:38;;;;;;;;;2.00;2.00;;;;;19.48;62.07;100499.47;4998726;28;45480;-75
2022/06/08 04:12:04;;;;;;;;;4.00;2.00;;;;;19.44;62.19;100490.72;4998535;28;45418;-76
2022/06/08 04:14:30;;;;;;;;;3.50;3.00;;;;;19.43;62.44;100489.00;4980394;28;45599;-75
2022/06/08 04:16:55;;;;;;;;;2.25;2.25;;;;;19.47;62.31;100492.31;4985727;28;45294;-75
2022/06/08 04:19:21;;;;;;;;;2.25;2.00;;;;;19.39;62.35;100486.63;4992109;28;45261;-75
2022/06/08 04:21:47;;;;;;;;;2.75;2.00;;;;;19.36;62.24;100479.59;4997089;28;45185;-75
2022/06/08 04:24:15;;;;;;;;;3.00;2.25;;;;;19.36;62.80;100479.59;4996309;28;45241;-75
2022/06/08 04:26:41;;;;;;;;;2.25;2.25;;;;;19.35;63.06;100479.72;4985892;28;45291;-75
2022/06/08 04:29:08;;;;;;;;;5.00;2.25;;;;;19.35;62.81;100477.84;4980898;28;45517;-75
2022/06/08 04:31:34;;;;;;;;;2.25;2.25;;;;;19.31;62.49;100470.97;4980605;28;45466;-75
2022/06/08 04:34:03;;;;;;;;;2.25;1.50;;;;;19.22;62.71;100455.38;4998133;28;45428;-75
2022/06/08 04:36:29;;;;;;;;;4.50;3.00;;;;;19.23;63.11;100470.66;4986662;28;45391;-75
2022/06/08 04:38:55;;;;;;;;;3.75;2.75;;;;;19.20;62.91;100455.50;4998271;28;45217;-75
2022/06/08 04:41:21;;;;;;;;;5.75;3.00;;;;;19.07;63.21;100438.44;4998286;28;45331;-75
2022/06/08 04:43:47;;;;;;;;;2.50;2.00;;;;;19.16;63.21;100462.13;4998354;28;45251;-75
2022/06/08 04:46:16;;;;;;;;;2.00;1.00;;;;;19.16;63.35;100451.28;4998387;28;45461;-76
2022/06/08 04:48:44;;;;;;;;;4.50;3.50;;;;;19.12;63.76;100449.78;4980850;28;45318;-75
2022/06/08 04:51:10;;;;;;;;;4.00;2.00;;;;;19.15;63.74;100454.13;4998204;28;45414;-75
2022/06/08 04:53:38;;;;;;;;;1.00;1.00;;;;;19.08;63.61;100448.28;4996025;28;45304;-75
2022/06/08 04:56:05;;;;;;;;;4.00;3.00;;;;;19.06;63.48;100442.09;4980573;28;45394;-75
2022/06/08 04:58:30;;;;;;;;;4.25;3.00;;;;;19.03;63.88;100442.34;4980546;28;45371;-74
2022/06/08 05:00:55;;;;;;;;;5.00;3.25;;;;;19.04;64.08;100442.22;4989296;28;46317;-75
2022/06/08 05:03:21;;;;;;;;;1.75;1.75;;;;;18.93;64.07;100428.63;4992361;28;45259;-76
2022/06/08 05:05:47;;;;;;;;;3.00;3.00;;;;;18.93;64.06;100430.44;4990289;28;47027;-74
2022/06/08 05:08:14;;;;;;;;;5.25;3.00;;;;;18.93;63.96;100435.84;4992551;28;45296;-73
2022/06/08 05:10:39;;;;;;;;;3.50;3.50;;;;;18.93;64.17;100435.84;4997801;28;45221;-74
2022/06/08 05:13:06;;;;;;;;;2.75;2.75;;;;;18.87;64.34;100427.19;4997603;28;45322;-75
2022/06/08 05:15:35;;;;;;;;;2.50;2.00;;;;;18.89;64.55;100424.38;4997922;28;45319;-74
2022/06/08 05:18:01;;;;;;;;;2.25;2.25;;;;;18.92;64.35;100423.31;4996897;28;45338;-75
2022/06/08 05:20:29;;;;;;;;;2.50;2.50;;;;;18.87;64.62;100420.94;4996838;28;46427;-74
2022/06/08 05:22:55;;;;;;;;;3.00;1.00;;;;;18.84;64.73;100426.56;4997437;28;45298;-75
2022/06/08 05:25:35;;;;;;;;;2.50;2.00;;;;;18.84;64.65;100430.16;4997861;28;45254;-75
2022/06/08 05:28:02;;;;;;;;;2.25;2.25;;;;;18.79;64.49;100418.75;4997634;28;45517;-75
2022/06/08 05:30:28;;;;;;;;;5.25;2.75;;;;;18.76;64.88;100418.09;4997676;28;45250;-74
2022/06/08 05:32:54;;;;;;;;;1.50;1.50;;;;;18.74;64.90;100411.94;4997615;28;45521;-75
2022/06/08 05:35:21;;;;;;;;;2.25;2.00;;;;;18.74;65.00;100410.09;4992359;28;47149;-74
2022/06/08 05:37:47;;;;;;;;;3.00;2.25;;;;;18.73;65.08;100415.63;4979763;28;45689;-74
2022/06/08 05:40:13;;;;;;;;;2.00;2.00;;;;;18.67;64.90;100417.78;4997749;28;45326;-74
2022/06/08 05:42:39;;;;;;;;;2.25;2.25;;;;;18.62;65.45;100421.81;4997387;28;45368;-71
2022/06/08 05:45:15;;;;;;;;;3.00;3.00;;;;;18.59;65.33;100412.06;4997727;28;45395;-72
2022/06/08 05:47:40;;;;;;;;;3.50;3.00;;;;;18.61;65.67;100410.13;4993588;28;46590;-72
2022/06/08 05:50:07;;;;;;;;;2.50;2.00;;;;;18.61;65.24;100414.66;4997279;28;46881;-72
2022/06/08 05:52:32;;;;;;;;;2.50;2.50;;;;;18.57;65.73;100402.34;4996511;28;45465;-73
2022/06/08 05:54:59;;;;;;;;;3.00;2.00;;;;;18.59;65.74;100403.09;4979447;28;45335;-73
2022/06/08 05:57:24;;;;;;;;;3.00;3.00;;;;;18.62;65.36;100406.44;4979789;28;45458;-73
2022/06/08 05:59:49;;;;;;;;;2.50;2.00;;;;;18.66;65.47;100410.66;4996171;28;46020;-73
2022/06/08 06:02:15;;;;;;;;;2.25;2.25;;;;;18.65;65.44;100403.53;4991218;28;45320;-73
2022/06/08 06:04:42;;;;;;;;;2.00;1.00;;;;;18.67;65.61;100400.72;4996547;28;45331;-73
2022/06/08 06:07:08;;;;;;;;;3.00;3.00;;;;;18.68;65.29;100405.16;4984121;28;45627;-73
2022/06/08 06:09:33;;;;;;;;;2.00;1.00;;;;;18.70;65.54;100414.00;4979274;28;47170;-73
2022/06/08 06:11:59;;;;;;;;;2.25;2.25;;;;;18.70;65.78;100414.00;4995959;28;45474;-72
2022/06/08 06:14:24;;;;;;;;;5.75;4.50;;;;;18.70;66.21;100417.56;4980112;28;45419;-72
2022/06/08 06:16:49;;;;;;;;;3.75;1.00;;;;;18.64;65.76;100411.75;4994669;28;45355;-72
2022/06/08 06:19:15;;;;;;;;;2.00;2.00;;;;;18.58;65.89;100415.75;4979516;28;47777;-72
2022/06/08 06:21:40;;;;;;;;;4.50;3.00;;;;;18.55;65.99;100420.53;4996927;28;45569;-72
2022/06/08 06:24:07;;;;;;;;;4.25;3.00;;;;;18.47;66.24;100410.25;4996933;28;45409;-71
2022/06/08 06:26:32;;;;;;;;;1.75;1.00;;;;;18.35;66.13;100405.72;4965194;28;46109;-72
2022/06/08 06:28:58;;;;;;;;;3.25;1.00;;;;;18.44;66.48;100419.44;5039897;27;45208;-73
2022/06/08 06:31:36;;;;;;;;;1.00;1.00;;;;;18.41;66.23;100413.38;4996563;28;45221;-72
2022/06/08 06:34:01;;;;;;;;;2.00;2.00;;;;;18.40;66.21;100417.91;4996067;28;45449;-72
2022/06/08 06:36:26;;;;;;;;;2.00;2.00;;;;;18.39;66.80;100421.56;4996160;28;46142;-75
2022/06/08 06:38:52;;;;;;;;;3.00;3.00;;;;;18.43;66.47;100417.72;4996461;28;45589;-72
2022/06/08 06:41:18;;;;;;;;;3.50;3.00;;;;;18.46;66.81;100424.72;4996328;28;45308;-73
2022/06/08 06:43:44;;;;;;;;;4.00;3.00;;;;;18.47;66.41;100426.47;4979007;28;45446;-72
2022/06/08 06:46:10;;;;;;;;;2.50;1.00;;;;;18.52;66.60;100424.28;4995735;28;45515;-73
2022/06/08 06:48:36;;;;;;;;;1.25;1.25;;;;;18.53;66.72;100428.75;4996475;28;46231;-72
2022/06/08 06:51:03;;;;;;;;;2.00;2.00;;;;;18.55;66.42;100428.63;4996109;28;45347;-73
2022/06/08 06:53:28;;;;;;;;;2.00;2.00;;;;;18.54;66.57;100424.19;4994120;28;45327;-73
2022/06/08 06:55:53;;;;;;;;;3.50;2.25;;;;;18.49;66.48;100421.81;4996121;28;45238;-73
2022/06/08 06:58:19;;;;;;;;;1.25;1.25;;;;;18.49;67.00;100430.78;4994508;28;46487;-72
2022/06/08 07:00:44;;;;;;;;;3.00;3.00;;;;;18.54;66.89;100426.88;4978376;28;45256;-72
2022/06/08 07:03:09;;;;;;;;;4.00;2.00;;;;;18.57;67.02;100434.78;4995480;28;46603;-71
2022/06/08 07:05:35;;;;;;;;;1.75;1.00;;;;;18.58;66.59;100439.22;4993009;28;45504;-72
2022/06/08 07:08:00;;;;;;;;;1.75;1.75;;;;;18.47;66.96;100415.66;4994986;28;46882;-73
2022/06/08 07:10:26;;;;;;;;;1.00;1.00;;;;;18.58;66.68;100440.09;4988566;28;45462;-72
2022/06/08 07:12:52;;;;;;;;;2.75;1.50;;;;;18.57;66.83;100437.50;4992965;28;45422;-73
2022/06/08 07:15:21;;;;;;;;;1.00;1.00;;;;;18.43;66.83;100420.41;4995549;27;45501;-73
2022/06/08 07:17:46;;;;;;;;;1.00;1.00;;;;;18.52;66.73;100437.81;4995698;28;45674;-75
2022/06/08 07:20:13;;;;;;;;;1.00;1.00;;;;;18.48;66.83;100431.75;4998550;28;45405;-74
2022/06/08 07:22:39;;;;;;;;;1.00;1.00;;;;;18.55;67.18;100428.63;4981588;28;45403;-75
2022/06/08 07:25:06;;;;;;;;;0.25;0.25;;;;;18.56;66.76;100433.03;4997660;28;45566;-74
2022/06/08 07:27:32;;;;;;;;;1.50;1.00;;;;;18.50;67.10;100428.94;4973725;28;45629;-74
2022/06/08 07:29:57;;;;;;;;;1.00;1.00;;;;;18.56;66.92;100441.16;4997900;28;45401;-74
2022/06/08 07:32:22;;;;;;;;;1.00;1.00;;;;;18.56;66.88;100439.34;4998360;28;45296;-74
2022/06/08 07:34:47;;;;;;;;;1.25;1.00;;;;;18.53;66.87;100431.44;4997679;28;45437;-74
2022/06/08 07:37:13;;;;;;;;;1.75;1.00;;;;;18.45;67.54;100437.38;4997335;28;45426;-67
2022/06/08 07:39:38;;;;;;;;;1.00;1.00;;;;;18.40;67.63;100434.13;4998088;28;45414;-65
2022/06/08 07:42:04;;;;;;;;;1.75;1.00;;;;;18.40;67.27;100426.03;4998101;28;45390;-66
2022/06/08 07:44:29;;;;;;;;;3.00;1.00;;;;;18.32;67.44;100421.16;4998060;28;45452;-67
2022/06/08 07:46:56;;;;;;;;;0.50;0.50;;;;;18.33;67.96;100427.44;4979862;28;47258;-70
2022/06/08 07:49:45;;;;;;;;;0.50;0.50;;;;;18.31;67.77;100421.28;5014618;27;45580;-73
2022/06/08 07:52:16;;;;;;;;;1.25;0.00;;;;;18.19;68.08;100398.66;5005852;27;45642;-73
2022/06/08 07:54:45;;;;;;;;;1.00;1.00;;;;;18.40;67.60;100434.13;4997943;27;45352;-70
2022/06/08 07:57:21;;;;;;;;;2.25;1.00;;;;;18.19;67.81;100404.06;4997400;28;45686;-74
2022/06/08 07:59:50;;;;;;;;;0.00;0.00;;;;;18.40;67.90;100438.69;4973856;28;45327;-79
2022/06/08 08:02:16;;;;;;;;;0.00;0.00;;;;;18.40;68.11;100434.13;4997776;28;45406;-71
2022/06/08 08:04:42;;;;;;;;;1.00;1.00;;;;;18.31;68.29;100410.47;4997736;28;45474;-66
2022/06/08 08:07:07;;;;;;;;;1.00;1.00;;;;;18.34;68.28;100421.03;4996199;27;47369;-70
2022/06/08 08:09:33;;;;;;;;;1.25;1.00;;;;;18.37;68.77;100428.09;4997252;27;45464;-73
2022/06/08 08:12:00;;;;;;;;;0.75;0.75;;;;;18.33;68.61;100422.88;4980392;28;45414;-73
2022/06/08 08:14:26;;;;;;;;;0.00;0.00;;;;;18.40;68.59;100423.31;4980267;28;45362;-74
2022/06/08 08:16:52;;;;;;;;;0.00;0.00;;;;;18.38;68.86;100419.00;4997464;27;45601;-73
2022/06/08 08:19:24;;;;;;;;;0.00;0.00;;;;;18.38;69.11;100425.28;4997642;28;45466;-74
2022/06/08 08:21:49;;;;;;;;;1.00;1.00;;;;;18.27;68.87;100395.44;4985296;27;45232;-74
2022/06/08 08:24:16;;;;;;;;;0.50;0.50;;;;;18.47;68.87;100413.81;4980255;27;45497;-74
2022/06/08 08:26:44;;;;;;;;;0.75;0.75;;;;;18.42;69.22;100393.50;4997627;27;45488;-74
2022/06/08 08:29:09;;;;;;;;;1.00;1.00;;;;;18.33;70.00;100378.81;4980277;27;45786;-74
2022/06/08 08:31:37;;;;;;;;;1.00;0.75;;;;;18.36;70.56;100373.19;4980044;28;45390;-74
2022/06/08 08:34:02;;;;;;;;;0.25;0.25;;;;;18.61;70.01;100407.44;4997961;27;45386;-73
2022/06/08 08:36:27;;;;;;;;;0.50;0.50;;;;;18.50;70.49;100369.50;4997434;28;45260;-74
2022/06/08 08:38:53;;;;;;;;;0.00;0.00;;;;;18.43;70.20;100360.97;4997381;27;45391;-73
2022/06/08 08:44:32;;;;;;;;;0.75;0.50;;;;;18.57;69.52;100375.31;4997852;28;45438;-74
2022/06/08 08:47:30;;;;;;;;;0.00;0.00;;;;;18.85;69.20;100417.50;5000440;28;45391;-74
2022/06/08 08:50:16;;;;;;;;;1.00;1.00;;;;;18.89;69.78;100418.97;4982083;28;45308;-71
2022/06/08 08:52:49;;;;;;;;;1.00;0.00;;;;;18.92;69.67;100426.03;4997515;28;45392;-71
2022/06/08 08:55:44;;;;;;;;;2.50;1.00;;;;;18.98;69.65;100434.56;4978971;27;45531;-71
2022/06/08 08:58:14;;;;;;;;;0.00;0.00;;;;;19.01;69.33;100436.16;4987636;28;45414;-71
2022/06/08 09:00:47;;;;;;;;;0.50;0.50;;;;;18.95;69.40;100412.28;4996678;27;45637;-71
2022/06/08 09:03:23;;;;;;;;;0.50;0.00;;;;;19.03;68.96;100429.66;4997246;27;45384;-71
2022/06/08 09:05:52;;;;;;;;;0.00;0.00;;;;;19.12;69.37;100443.50;4997161;27;45517;-71
2022/06/08 09:08:20;;;;;;;;;0.25;0.25;;;;;19.14;68.87;100434.28;4979496;28;47501;-71
2022/06/08 09:10:47;;;;;;;;;0.00;0.00;;;;;18.97;68.88;100416.59;4995724;27;45428;-71
2022/06/08 09:13:20;;;;;;;;;0.00;0.00;;;;;19.13;69.50;100437.09;4997595;28;45445;-71
2022/06/08 09:15:56;;;;;;;;;0.00;0.00;;;;;19.14;69.04;100433.44;4979504;28;45260;-71
2022/06/08 09:18:34;;;;;;;;;0.25;0.00;;;;;19.13;69.14;100427.16;4979653;28;47340;-71
2022/06/08 09:21:18;;;;;;;;;1.25;0.00;;;;;19.17;69.41;100425.94;4987422;28;45571;-71
2022/06/08 09:23:44;;;;;;;;;0.75;0.75;;;;;19.03;69.61;100402.63;4979307;28;45568;-71
2022/06/08 09:26:26;;;;;;;;;1.00;1.00;;;;;19.23;69.91;100430.06;4993807;28;45593;-71
2022/06/08 09:29:14;;;;;;;;;0.75;0.75;;;;;19.23;69.34;100420.09;4980284;28;47642;-70
2022/06/08 09:31:40;;;;;;;;;1.00;1.00;;;;;19.18;70.25;100403.34;4996687;27;45422;-77
2022/06/08 09:34:22;;;;;;;;;0.75;0.75;;;;;19.32;69.86;100420.41;4979585;28;45394;-77
2022/06/08 09:37:12;;;;;;;;;1.00;1.00;;;;;19.36;70.19;100428.19;4996666;28;45782;-77
2022/06/08 09:39:40;;;;;;;;;1.00;1.00;;;;;19.25;70.19;100406.47;4995700;27;45591;-76
2022/06/08 09:42:33;;;;;;;;;1.50;1.50;;;;;19.46;69.78;100435.59;4978912;28;45848;-76
2022/06/08 09:45:12;;;;;;;;;1.00;1.00;;;;;19.46;69.84;100433.75;4979391;28;45267;-76
2022/06/08 09:53:58;;;;;;;;;0.75;0.75;;;;;19.54;69.97;100427.78;4981996;28;45688;-77
2022/06/08 09:56:35;;;;;;;;;5.00;1.25;;;;;19.59;70.20;100428.28;4980232;28;45423;-81
2022/06/08 09:59:30;;;;;;;;;0.75;0.75;;;;;19.52;68.74;100408.94;5067574;27;45505;-76
2022/06/08 10:02:03;;;;;;;;;1.25;1.25;;;;;19.63;68.89;100418.97;4978838;28;47038;-76
2022/06/08 10:04:53;;;;;;;;;2.00;2.00;;;;;19.76;68.92;100429.75;4995973;28;45446;-76
2022/06/08 10:07:50;;;;;;;;;1.00;0.75;;;;;19.80;68.55;100421.28;4976967;28;45510;-76
2022/06/08 10:10:25;;;;;;;;;1.00;1.00;;;;;19.80;68.29;100418.56;4990123;28;45600;-75
2022/06/08 10:12:59;;;;;;;;;2.00;2.00;;;;;19.67;69.31;100378.97;4995773;28;45437;-75
2022/06/08 10:15:34;;;;;;;;;1.75;1.00;;;;;19.92;69.15;100408.63;4995460;27;45522;-75
2022/06/08 10:18:02;;;;;;;;;1.00;1.00;;;;;19.94;68.25;100401.25;4994609;27;45324;-76
2022/06/08 10:20:40;;;;;;;;;1.00;1.00;;;;;19.90;67.44;100386.22;4992756;27;45425;-76
2022/06/08 10:23:36;;;;;;;;;1.25;1.25;;;;;19.99;67.35;100396.34;4992998;28;46020;-75
2022/06/08 10:26:34;;;;;;;;;1.75;1.75;;;;;20.06;68.51;100399.44;4979781;28;45792;-76
2022/06/08 10:29:03;;;;;;;;;1.75;1.75;;;;;20.12;68.06;100400.81;4984202;28;45418;-75
2022/06/08 10:31:40;;;;;;;;;1.00;1.00;;;;;20.07;67.85;100392.19;4975493;27;45492;-75
2022/06/08 10:34:23;;;;;;;;;1.50;1.50;;;;;20.23;67.31;100408.97;4995535;28;45543;-77
2022/06/08 10:36:51;;;;;;;;;1.75;0.25;;;;;20.12;67.12;100371.03;4994647;28;45647;-76
2022/06/08 10:39:17;;;;;;;;;0.00;0.00;;;;;20.11;65.79;100364.75;4978113;28;45794;-77
2022/06/08 10:44:46;;;;;;;;;1.25;0.00;;;;;20.28;66.21;100412.19;4990551;28;45468;-76
2022/06/08 10:47:11;;;;;;;;;1.00;1.00;;;;;20.21;66.55;100413.63;4995174;28;45602;-76
2022/06/08 10:49:36;;;;;;;;;1.00;1.00;;;;;20.16;66.58;100407.72;4995289;28;45437;-76
2022/06/08 10:52:19;;;;;;;;;1.00;1.00;;;;;20.18;66.68;100414.75;5020070;28;46177;-77
2022/06/08 10:54:54;;;;;;;;;1.00;1.00;;;;;20.20;66.21;100414.63;4998152;27;46337;-76
2022/06/08 10:57:37;;;;;;;;;1.00;1.00;;;;;20.18;65.92;100424.75;4980689;28;46362;-76
2022/06/08 11:00:18;;;;;;;;;1.75;0.25;;;;;20.20;65.75;100424.59;4998316;28;45506;-77
2022/06/08 11:03:01;;;;;;;;;1.00;1.00;;;;;20.17;66.12;100434.69;4979791;28;46075;-76
2022/06/08 11:05:46;;;;;;;;;1.50;0.75;;;;;20.16;66.14;100433.00;4981795;27;45866;-77
2022/06/08 11:08:13;;;;;;;;;4.75;2.50;;;;;20.09;66.47;100422.72;4999107;28;45544;-77
2022/06/08 11:10:45;;;;;;;;;2.50;1.50;;;;;20.19;66.25;100440.00;4981328;28;45727;-76
2022/06/08 11:13:22;;;;;;;;;5.75;3.75;;;;;20.22;65.99;100434.34;4981639;28;45516;-76
2022/06/08 11:15:54;;;;;;;;;2.75;1.75;;;;;20.17;66.55;100420.28;4997989;27;46385;-76
2022/06/08 11:18:25;;;;;;;;;3.00;2.75;;;;;20.09;65.86;100399.19;4997034;27;45505;-78
2022/06/08 11:21:03;;;;;;;;;2.25;2.25;;;;;20.18;66.29;100413.91;4981433;28;45229;-78
2022/06/08 11:23:40;;;;;;;;;2.00;2.00;;;;;20.25;66.90;100419.72;4997463;28;45436;-79
2022/06/08 11:26:23;;;;;;;;;2.50;2.00;;;;;20.26;65.72;100427.69;4981535;28;46417;-78
2022/06/08 11:28:56;;;;;;;;;2.50;2.25;;;;;20.13;65.68;100402.53;4999273;27;45391;-78
2022/06/08 11:31:27;;;;;;;;;2.00;2.00;;;;;20.21;65.82;100427.19;4998966;28;45331;-79
2022/06/08 11:34:26;;;;;;;;;4.00;2.00;;;;;20.22;65.94;100419.94;4999207;28;45557;-79
2022/06/08 11:37:04;;;;;;;;;2.00;2.00;;;;;20.24;66.57;100421.53;4979018;28;48240;-76
2022/06/08 11:39:36;;;;;;;;;3.25;2.00;;;;;20.28;66.29;100412.19;4972057;27;46268;-73
2022/06/08 17:45:29;;;;;;;;;3.00;1.25;;;;;21.72;49.66;100617.91;5565345;22;46136;-78
2022/06/08 17:47:54;;;;;;;;;1.00;1.00;;;;;21.54;50.44;100623.00;5052004;28;45830;-82
2022/06/08 17:50:21;;;;;;;;;7.25;3.00;;;;;21.51;53.69;100666.69;5054277;28;45533;-83
2022/06/08 17:53:47;;;;;;;;;3.00;2.00;;;;;21.52;54.09;100692.84;5037505;28;45573;-86
2022/06/08 17:56:36;;;;;;;;;3.00;2.00;;;;;21.20;55.03;100666.34;5034141;28;45435;-78
2022/06/08 18:17:35;;;;;;;;;4.00;2.25;;;;;20.85;56.97;100688.97;5185436;22;45544;-80